sensor_id;sensor_type;location;lat;lon;timestamp;pressure;altitude;pressure_sealevel;temperature;humidity
33795;BME280;51430;52.242;21.118;2023-04-05T00:01:04;100920.48;;;-0.32;80.45
33795;BME280;51430;52.242;21.118;2023-04-05T00:03:34;100920.36;;;-0.34;80.62
33795;BME280;51430;52.242;21.118;2023-04-05T00:06:03;100919.38;;;-0.36;80.37
33795;BME280;51430;52.242;21.118;2023-04-05T00:08:32;100917.60;;;-0.41;80.65
33795;BME280;51430;52.242;21.118;2023-04-05T00:10:59;100916.32;;;-0.45;80.74
33795;BME280;51430;52.242;21.118;2023-04-05T00:13:27;100913.66;;;-0.49;80.92
33795;BME280;51430;52.242;21.118;2023-04-05T00:15:56;100912.54;;;-0.51;80.90
33795;BME280;51430;52.242;21.118;2023-04-05T00:18:24;100911.77;;;-0.55;81.14
33795;BME280;51430;52.242;21.118;2023-04-05T00:20:52;100912.59;;;-0.62;81.23
33795;BME280;51430;52.242;21.118;2023-04-05T00:23:20;100910.50;;;-0.68;81.56
33795;BME280;51430;52.242;21.118;2023-04-05T00:25:49;100908.95;;;-0.67;81.91
33795;BME280;51430;52.242;21.118;2023-04-05T00:28:17;100904.69;;;-0.69;82.11
33795;BME280;51430;52.242;21.118;2023-04-05T00:30:45;100900.80;;;-0.71;82.22
33795;BME280;51430;52.242;21.118;2023-04-05T00:33:13;100900.98;;;-0.72;82.76
33795;BME280;51430;52.242;21.118;2023-04-05T00:35:41;100900.52;;;-0.73;82.98
33795;BME280;51430;52.242;21.118;2023-04-05T00:38:09;100897.61;;;-0.74;83.16
33795;BME280;51430;52.242;21.118;2023-04-05T00:40:39;100896.48;;;-0.77;83.05
33795;BME280;51430;52.242;21.118;2023-04-05T00:43:07;100892.06;;;-0.78;83.01
33795;BME280;51430;52.242;21.118;2023-04-05T00:45:35;100887.81;;;-0.79;83.08
33795;BME280;51430;52.242;21.118;2023-04-05T00:48:04;100889.01;;;-0.80;82.92
33795;BME280;51430;52.242;21.118;2023-04-05T00:50:32;100886.48;;;-0.81;83.00
33795;BME280;51430;52.242;21.118;2023-04-05T00:53:00;100883.66;;;-0.85;83.40
33795;BME280;51430;52.242;21.118;2023-04-05T00:55:28;100877.70;;;-0.87;83.69
33795;BME280;51430;52.242;21.118;2023-04-05T00:57:56;100878.95;;;-0.90;83.91
33795;BME280;51430;52.242;21.118;2023-04-05T01:00:24;100877.27;;;-0.91;84.15
33795;BME280;51430;52.242;21.118;2023-04-05T01:02:54;100875.09;;;-0.93;84.29
33795;BME280;51430;52.242;21.118;2023-04-05T01:05:38;100872.10;;;-0.98;84.05
33795;BME280;51430;52.242;21.118;2023-04-05T01:08:27;100872.02;;;-1.03;84.57
33795;BME280;51430;52.242;21.118;2023-04-05T01:11:02;100872.70;;;-1.10;84.59
33795;BME280;51430;52.242;21.118;2023-04-05T01:13:32;100867.73;;;-1.09;84.84
33795;BME280;51430;52.242;21.118;2023-04-05T01:16:00;100868.27;;;-1.11;85.00
33795;BME280;51430;52.242;21.118;2023-04-05T01:18:28;100865.73;;;-1.12;85.06
33795;BME280;51430;52.242;21.118;2023-04-05T01:21:07;100861.45;;;-1.12;85.18
33795;BME280;51430;52.242;21.118;2023-04-05T01:24:05;100867.66;;;-1.16;85.48
33795;BME280;51430;52.242;21.118;2023-04-05T01:26:45;100867.52;;;-1.25;85.57
33795;BME280;51430;52.242;21.118;2023-04-05T01:29:35;100867.74;;;-1.27;85.88
33795;BME280;51430;52.242;21.118;2023-04-05T01:35:20;100865.70;;;-1.36;86.28
33795;BME280;51430;52.242;21.118;2023-04-05T01:37:56;100866.02;;;-1.35;86.55
33795;BME280;51430;52.242;21.118;2023-04-05T01:40:26;100871.30;;;-1.35;86.72
33795;BME280;51430;52.242;21.118;2023-04-05T01:42:55;100871.77;;;-1.32;86.97
33795;BME280;51430;52.242;21.118;2023-04-05T01:45:22;100870.91;;;-1.32;86.86
33795;BME280;51430;52.242;21.118;2023-04-05T01:47:50;100872.98;;;-1.33;86.87
33795;BME280;51430;52.242;21.118;2023-04-05T01:50:20;100874.86;;;-1.33;87.20
33795;BME280;51430;52.242;21.118;2023-04-05T01:52:48;100877.83;;;-1.35;87.36
33795;BME280;51430;52.242;21.118;2023-04-05T01:55:15;100873.41;;;-1.38;87.58
33795;BME280;51430;52.242;21.118;2023-04-05T01:57:44;100875.13;;;-1.37;87.68
33795;BME280;51430;52.242;21.118;2023-04-05T02:00:12;100873.20;;;-1.35;87.91
33795;BME280;51430;52.242;21.118;2023-04-05T02:02:40;100871.66;;;-1.35;87.91
33795;BME280;51430;52.242;21.118;2023-04-05T02:05:09;100870.01;;;-1.38;87.47
33795;BME280;51430;52.242;21.118;2023-04-05T02:07:36;100872.63;;;-1.41;87.36
33795;BME280;51430;52.242;21.118;2023-04-05T02:10:05;100874.70;;;-1.42;87.20
33795;BME280;51430;52.242;21.118;2023-04-05T02:12:33;100873.35;;;-1.43;87.36
33795;BME280;51430;52.242;21.118;2023-04-05T02:15:00;100869.06;;;-1.43;87.42
33795;BME280;51430;52.242;21.118;2023-04-05T02:17:28;100866.05;;;-1.45;87.49
33795;BME280;51430;52.242;21.118;2023-04-05T02:20:00;100863.21;;;-1.50;87.48
33795;BME280;51430;52.242;21.118;2023-04-05T02:22:29;100867.70;;;-1.52;87.93
33795;BME280;51430;52.242;21.118;2023-04-05T02:24:57;100867.29;;;-1.57;87.61
33795;BME280;51430;52.242;21.118;2023-04-05T02:27:24;100872.64;;;-1.61;87.85
33795;BME280;51430;52.242;21.118;2023-04-05T02:29:52;100871.52;;;-1.65;88.12
33795;BME280;51430;52.242;21.118;2023-04-05T02:32:23;100868.65;;;-1.67;88.32
33795;BME280;51430;52.242;21.118;2023-04-05T02:34:51;100869.34;;;-1.67;88.61
33795;BME280;51430;52.242;21.118;2023-04-05T02:37:19;100867.80;;;-1.67;88.86
33795;BME280;51430;52.242;21.118;2023-04-05T02:39:47;100867.38;;;-1.72;89.01
33795;BME280;51430;52.242;21.118;2023-04-05T02:42:15;100860.55;;;-1.73;88.89
33795;BME280;51430;52.242;21.118;2023-04-05T02:44:43;100861.75;;;-1.72;88.65
33795;BME280;51430;52.242;21.118;2023-04-05T02:47:10;100860.40;;;-1.74;88.77
33795;BME280;51430;52.242;21.118;2023-04-05T02:49:38;100864.05;;;-1.77;88.83
33795;BME280;51430;52.242;21.118;2023-04-05T02:52:07;100866.65;;;-1.79;88.88
33795;BME280;51430;52.242;21.118;2023-04-05T02:54:35;100869.09;;;-1.82;89.02
33795;BME280;51430;52.242;21.118;2023-04-05T02:57:03;100867.64;;;-1.87;88.98
33795;BME280;51430;52.242;21.118;2023-04-05T02:59:30;100868.70;;;-1.90;89.06
33795;BME280;51430;52.242;21.118;2023-04-05T03:01:59;100869.73;;;-1.89;89.26
33795;BME280;51430;52.242;21.118;2023-04-05T03:04:27;100866.48;;;-1.89;88.99
33795;BME280;51430;52.242;21.118;2023-04-05T03:06:55;100862.91;;;-1.90;89.25
33795;BME280;51430;52.242;21.118;2023-04-05T03:09:23;100862.08;;;-1.91;89.14
33795;BME280;51430;52.242;21.118;2023-04-05T03:11:53;100867.27;;;-1.94;88.97
33795;BME280;51430;52.242;21.118;2023-04-05T03:14:21;100870.39;;;-1.98;88.93
33795;BME280;51430;52.242;21.118;2023-04-05T03:16:49;100873.50;;;-2.00;88.95
33795;BME280;51430;52.242;21.118;2023-04-05T03:19:17;100874.71;;;-2.01;88.83
33795;BME280;51430;52.242;21.118;2023-04-05T03:21:49;100876.42;;;-2.02;89.16
33795;BME280;51430;52.242;21.118;2023-04-05T03:24:17;100875.33;;;-1.96;89.03
33795;BME280;51430;52.242;21.118;2023-04-05T03:26:45;100872.42;;;-1.88;89.15
33795;BME280;51430;52.242;21.118;2023-04-05T03:29:15;100870.92;;;-1.79;89.31
33795;BME280;51430;52.242;21.118;2023-04-05T03:31:44;100868.36;;;-1.69;89.31
33795;BME280;51430;52.242;21.118;2023-04-05T03:34:12;100869.21;;;-1.60;89.38
33795;BME280;51430;52.242;21.118;2023-04-05T03:36:39;100863.10;;;-1.53;89.56
33795;BME280;51430;52.242;21.118;2023-04-05T03:39:12;100863.34;;;-1.47;89.59
33795;BME280;51430;52.242;21.118;2023-04-05T03:41:40;100862.55;;;-1.42;89.55
33795;BME280;51430;52.242;21.118;2023-04-05T03:44:09;100862.23;;;-1.34;89.75
33795;BME280;51430;52.242;21.118;2023-04-05T03:46:37;100861.94;;;-1.28;89.64
33795;BME280;51430;52.242;21.118;2023-04-05T03:49:05;100863.70;;;-1.23;89.61
33795;BME280;51430;52.242;21.118;2023-04-05T03:51:34;100863.75;;;-1.16;89.92
33795;BME280;51430;52.242;21.118;2023-04-05T03:54:02;100859.52;;;-1.10;89.56
33795;BME280;51430;52.242;21.118;2023-04-05T03:56:31;100862.32;;;-1.05;89.80
33795;BME280;51430;52.242;21.118;2023-04-05T03:58:59;100862.36;;;-0.98;89.72
33795;BME280;51430;52.242;21.118;2023-04-05T04:01:27;100862.70;;;-0.90;89.53
33795;BME280;51430;52.242;21.118;2023-04-05T04:03:56;100862.06;;;-0.84;89.63
33795;BME280;51430;52.242;21.118;2023-04-05T04:06:23;100863.69;;;-0.80;89.41
33795;BME280;51430;52.242;21.118;2023-04-05T04:08:53;100866.27;;;-0.72;89.37
33795;BME280;51430;52.242;21.118;2023-04-05T04:11:21;100866.94;;;-0.65;89.38
33795;BME280;51430;52.242;21.118;2023-04-05T04:13:49;100867.13;;;-0.58;89.05
33795;BME280;51430;52.242;21.118;2023-04-05T04:16:17;100866.10;;;-0.50;89.07
33795;BME280;51430;52.242;21.118;2023-04-05T04:18:45;100866.54;;;-0.47;88.66
33795;BME280;51430;52.242;21.118;2023-04-05T04:21:12;100868.86;;;-0.43;88.61
33795;BME280;51430;52.242;21.118;2023-04-05T04:23:43;100871.70;;;-0.40;88.56
33795;BME280;51430;52.242;21.118;2023-04-05T04:26:12;100875.81;;;-0.33;88.26
33795;BME280;51430;52.242;21.118;2023-04-05T04:28:40;100877.15;;;-0.24;88.38
33795;BME280;51430;52.242;21.118;2023-04-05T04:31:11;100878.44;;;-0.21;88.31
33795;BME280;51430;52.242;21.118;2023-04-05T04:33:39;100874.30;;;-0.12;88.43
33795;BME280;51430;52.242;21.118;2023-04-05T04:36:10;100877.67;;;-0.03;88.19
33795;BME280;51430;52.242;21.118;2023-04-05T04:38:40;100872.05;;;0.02;87.59
33795;BME280;51430;52.242;21.118;2023-04-05T04:41:10;100874.06;;;0.12;87.57
33795;BME280;51430;52.242;21.118;2023-04-05T04:43:39;100873.58;;;0.17;86.98
33795;BME280;51430;52.242;21.118;2023-04-05T04:46:10;100876.30;;;0.18;86.87
33795;BME280;51430;52.242;21.118;2023-04-05T04:48:42;100878.38;;;0.25;86.68
33795;BME280;51430;52.242;21.118;2023-04-05T04:51:09;100871.20;;;0.36;86.39
33795;BME280;51430;52.242;21.118;2023-04-05T04:53:38;100869.15;;;0.43;86.26
33795;BME280;51430;52.242;21.118;2023-04-05T04:56:06;100864.86;;;0.49;85.85
33795;BME280;51430;52.242;21.118;2023-04-05T04:58:34;100874.05;;;0.58;85.90
33795;BME280;51430;52.242;21.118;2023-04-05T05:01:09;100875.84;;;0.67;85.87
33795;BME280;51430;52.242;21.118;2023-04-05T05:03:39;100874.54;;;0.71;85.55
33795;BME280;51430;52.242;21.118;2023-04-05T05:06:07;100877.00;;;0.75;84.97
33795;BME280;51430;52.242;21.118;2023-04-05T05:08:35;100881.42;;;0.77;84.60
33795;BME280;51430;52.242;21.118;2023-04-05T05:11:05;100881.36;;;0.85;84.21
33795;BME280;51430;52.242;21.118;2023-04-05T05:13:33;100882.27;;;0.96;84.30
33795;BME280;51430;52.242;21.118;2023-04-05T05:16:02;100882.91;;;1.03;84.26
33795;BME280;51430;52.242;21.118;2023-04-05T05:18:31;100881.19;;;1.10;83.73
33795;BME280;51430;52.242;21.118;2023-04-05T05:20:58;100882.86;;;1.11;83.59
33795;BME280;51430;52.242;21.118;2023-04-05T05:23:26;100883.98;;;1.20;83.52
33795;BME280;51430;52.242;21.118;2023-04-05T05:25:58;100890.31;;;1.26;83.32
33795;BME280;51430;52.242;21.118;2023-04-05T05:28:26;100889.40;;;1.33;83.22
33795;BME280;51430;52.242;21.118;2023-04-05T05:30:54;100893.58;;;1.43;82.77
33795;BME280;51430;52.242;21.118;2023-04-05T05:33:22;100897.38;;;1.54;82.43
33795;BME280;51430;52.242;21.118;2023-04-05T05:35:50;100897.08;;;1.64;81.86
33795;BME280;51430;52.242;21.118;2023-04-05T05:38:19;100898.65;;;1.68;81.51
33795;BME280;51430;52.242;21.118;2023-04-05T05:40:47;100899.77;;;1.71;81.27
33795;BME280;51430;52.242;21.118;2023-04-05T05:43:15;100898.58;;;1.76;81.05
33795;BME280;51430;52.242;21.118;2023-04-05T05:45:42;100897.20;;;1.82;80.69
33795;BME280;51430;52.242;21.118;2023-04-05T05:48:10;100900.52;;;1.91;80.39
33795;BME280;51430;52.242;21.118;2023-04-05T05:50:38;100899.83;;;1.91;79.94
33795;BME280;51430;52.242;21.118;2023-04-05T05:53:07;100901.14;;;1.98;80.02
33795;BME280;51430;52.242;21.118;2023-04-05T05:55:35;100905.05;;;2.11;79.75
33795;BME280;51430;52.242;21.118;2023-04-05T05:58:03;100907.89;;;2.19;79.47
33795;BME280;51430;52.242;21.118;2023-04-05T06:00:31;100903.44;;;2.33;79.13
33795;BME280;51430;52.242;21.118;2023-04-05T06:02:59;100901.57;;;2.43;78.71
33795;BME280;51430;52.242;21.118;2023-04-05T06:05:28;100902.27;;;2.48;78.59
33795;BME280;51430;52.242;21.118;2023-04-05T06:07:56;100904.77;;;2.55;78.46
33795;BME280;51430;52.242;21.118;2023-04-05T06:10:24;100907.46;;;2.66;77.86
33795;BME280;51430;52.242;21.118;2023-04-05T06:12:52;100907.76;;;2.73;77.64
33795;BME280;51430;52.242;21.118;2023-04-05T06:15:22;100908.86;;;2.75;77.24
33795;BME280;51430;52.242;21.118;2023-04-05T06:17:50;100914.73;;;2.75;77.15
33795;BME280;51430;52.242;21.118;2023-04-05T06:20:18;100916.31;;;2.88;76.82
33795;BME280;51430;52.242;21.118;2023-04-05T06:22:45;100916.13;;;2.98;76.46
33795;BME280;51430;52.242;21.118;2023-04-05T06:25:13;100916.60;;;3.00;75.56
33795;BME280;51430;52.242;21.118;2023-04-05T06:27:44;100916.46;;;2.94;75.53
33795;BME280;51430;52.242;21.118;2023-04-05T06:30:12;100918.33;;;3.00;75.10
33795;BME280;51430;52.242;21.118;2023-04-05T06:32:40;100915.08;;;3.13;74.77
33795;BME280;51430;52.242;21.118;2023-04-05T06:35:08;100916.20;;;3.24;74.20
33795;BME280;51430;52.242;21.118;2023-04-05T06:37:39;100919.40;;;3.27;73.39
33795;BME280;51430;52.242;21.118;2023-04-05T06:40:08;100920.48;;;3.25;73.17
33795;BME280;51430;52.242;21.118;2023-04-05T06:42:36;100922.00;;;3.40;74.41
33795;BME280;51430;52.242;21.118;2023-04-05T06:45:04;100924.34;;;3.56;73.64
33795;BME280;51430;52.242;21.118;2023-04-05T06:47:37;100924.14;;;3.65;72.08
33795;BME280;51430;52.242;21.118;2023-04-05T06:50:07;100925.23;;;3.59;70.49
33795;BME280;51430;52.242;21.118;2023-04-05T06:52:37;100928.57;;;3.53;69.72
33795;BME280;51430;52.242;21.118;2023-04-05T06:55:06;100931.97;;;3.46;69.13
33795;BME280;51430;52.242;21.118;2023-04-05T06:57:34;100929.97;;;3.57;69.08
33795;BME280;51430;52.242;21.118;2023-04-05T07:00:03;100930.94;;;3.68;68.78
33795;BME280;51430;52.242;21.118;2023-04-05T07:02:37;100926.73;;;3.74;68.82
33795;BME280;51430;52.242;21.118;2023-04-05T07:05:05;100931.36;;;3.75;68.74
33795;BME280;51430;52.242;21.118;2023-04-05T07:07:38;100932.44;;;3.64;68.60
33795;BME280;51430;52.242;21.118;2023-04-05T07:10:07;100933.23;;;3.62;68.39
33795;BME280;51430;52.242;21.118;2023-04-05T07:12:35;100937.48;;;3.68;68.30
33795;BME280;51430;52.242;21.118;2023-04-05T07:15:04;100942.29;;;3.73;67.89
33795;BME280;51430;52.242;21.118;2023-04-05T07:17:32;100939.48;;;3.79;67.91
33795;BME280;51430;52.242;21.118;2023-04-05T07:20:00;100938.65;;;3.91;67.27
33795;BME280;51430;52.242;21.118;2023-04-05T07:22:27;100943.41;;;4.01;65.96
33795;BME280;51430;52.242;21.118;2023-04-05T07:24:55;100942.87;;;4.02;65.47
33795;BME280;51430;52.242;21.118;2023-04-05T07:27:23;100940.38;;;4.04;64.91
33795;BME280;51430;52.242;21.118;2023-04-05T07:29:51;100941.73;;;4.00;64.81
33795;BME280;51430;52.242;21.118;2023-04-05T07:32:19;100938.08;;;4.01;64.78
33795;BME280;51430;52.242;21.118;2023-04-05T07:34:46;100942.45;;;3.99;64.24
33795;BME280;51430;52.242;21.118;2023-04-05T07:37:14;100943.05;;;3.93;64.55
33795;BME280;51430;52.242;21.118;2023-04-05T07:39:42;100943.49;;;3.99;64.56
33795;BME280;51430;52.242;21.118;2023-04-05T07:42:10;100945.91;;;4.08;64.30
33795;BME280;51430;52.242;21.118;2023-04-05T07:44:38;100942.34;;;4.16;63.90
33795;BME280;51430;52.242;21.118;2023-04-05T07:47:06;100942.52;;;4.15;63.42
33795;BME280;51430;52.242;21.118;2023-04-05T07:49:34;100943.04;;;4.11;62.18
33795;BME280;51430;52.242;21.118;2023-04-05T07:52:05;100948.06;;;4.19;62.04
33795;BME280;51430;52.242;21.118;2023-04-05T07:54:33;100946.91;;;4.26;60.93
33795;BME280;51430;52.242;21.118;2023-04-05T07:57:01;100946.05;;;4.35;60.37
33795;BME280;51430;52.242;21.118;2023-04-05T07:59:29;100947.70;;;4.36;59.99
33795;BME280;51430;52.242;21.118;2023-04-05T08:01:57;100945.20;;;4.43;60.41
33795;BME280;51430;52.242;21.118;2023-04-05T08:04:38;100946.98;;;4.58;60.39
33795;BME280;51430;52.242;21.118;2023-04-05T08:07:07;100944.58;;;4.65;59.43
33795;BME280;51430;52.242;21.118;2023-04-05T08:09:35;100945.51;;;4.68;58.96
33795;BME280;51430;52.242;21.118;2023-04-05T08:12:03;100949.10;;;4.77;58.07
33795;BME280;51430;52.242;21.118;2023-04-05T08:14:31;100946.71;;;4.88;57.58
33795;BME280;51430;52.242;21.118;2023-04-05T08:16:59;100947.08;;;5.08;57.02
33795;BME280;51430;52.242;21.118;2023-04-05T08:19:27;100951.42;;;5.07;55.99
33795;BME280;51430;52.242;21.118;2023-04-05T08:21:55;100950.77;;;5.06;56.28
33795;BME280;51430;52.242;21.118;2023-04-05T08:24:23;100950.68;;;5.04;55.59
33795;BME280;51430;52.242;21.118;2023-04-05T08:26:51;100952.07;;;4.96;55.16
33795;BME280;51430;52.242;21.118;2023-04-05T08:29:19;100948.91;;;4.97;55.79
33795;BME280;51430;52.242;21.118;2023-04-05T08:31:47;100949.68;;;5.19;56.44
33795;BME280;51430;52.242;21.118;2023-04-05T08:34:15;100953.48;;;5.27;54.86
33795;BME280;51430;52.242;21.118;2023-04-05T08:36:43;100950.23;;;5.22;54.73
33795;BME280;51430;52.242;21.118;2023-04-05T08:39:13;100954.29;;;5.12;54.95
33795;BME280;51430;52.242;21.118;2023-04-05T08:41:49;100954.27;;;5.17;55.36
33795;BME280;51430;52.242;21.118;2023-04-05T08:44:21;100953.90;;;5.25;55.91
33795;BME280;51430;52.242;21.118;2023-04-05T08:46:55;100955.55;;;5.42;55.80
33795;BME280;51430;52.242;21.118;2023-04-05T08:49:24;100955.63;;;5.44;55.93
33795;BME280;51430;52.242;21.118;2023-04-05T08:51:54;100952.73;;;5.43;56.10
33795;BME280;51430;52.242;21.118;2023-04-05T08:54:22;100953.94;;;5.43;55.73
33795;BME280;51430;52.242;21.118;2023-04-05T08:56:50;100954.73;;;5.48;55.89
33795;BME280;51430;52.242;21.118;2023-04-05T08:59:21;100955.38;;;5.49;55.80
33795;BME280;51430;52.242;21.118;2023-04-05T09:01:50;100956.02;;;5.43;55.98
33795;BME280;51430;52.242;21.118;2023-04-05T09:04:23;100956.70;;;5.43;56.52
33795;BME280;51430;52.242;21.118;2023-04-05T09:06:57;100957.83;;;5.34;55.00
33795;BME280;51430;52.242;21.118;2023-04-05T09:09:31;100958.31;;;5.34;55.32
33795;BME280;51430;52.242;21.118;2023-04-05T09:12:05;100957.48;;;5.56;55.87
33795;BME280;51430;52.242;21.118;2023-04-05T09:14:36;100955.76;;;5.49;56.20
33795;BME280;51430;52.242;21.118;2023-04-05T09:17:05;100953.96;;;5.54;55.47
33795;BME280;51430;52.242;21.118;2023-04-05T09:19:33;100952.27;;;5.68;55.17
33795;BME280;51430;52.242;21.118;2023-04-05T09:22:05;100958.05;;;5.82;55.40
33795;BME280;51430;52.242;21.118;2023-04-05T09:27:17;100959.26;;;5.93;54.97
33795;BME280;51430;52.242;21.118;2023-04-05T09:29:47;100955.51;;;5.81;52.70
33795;BME280;51430;52.242;21.118;2023-04-05T09:32:16;100954.35;;;5.57;53.36
33795;BME280;51430;52.242;21.118;2023-04-05T09:34:45;100955.40;;;5.68;53.81
33795;BME280;51430;52.242;21.118;2023-04-05T09:37:18;100956.36;;;5.84;52.64
33795;BME280;51430;52.242;21.118;2023-04-05T09:39:48;100958.95;;;6.11;51.90
33795;BME280;51430;52.242;21.118;2023-04-05T09:42:19;100960.27;;;6.16;50.91
33795;BME280;51430;52.242;21.118;2023-04-05T09:44:58;100957.64;;;6.34;50.15
33795;BME280;51430;52.242;21.118;2023-04-05T09:47:32;100958.19;;;6.47;49.54
33795;BME280;51430;52.242;21.118;2023-04-05T09:50:17;100957.71;;;6.57;48.42
33795;BME280;51430;52.242;21.118;2023-04-05T09:52:45;100959.48;;;6.77;48.26
33795;BME280;51430;52.242;21.118;2023-04-05T09:55:25;100956.29;;;6.89;47.95
33795;BME280;51430;52.242;21.118;2023-04-05T09:57:53;100958.80;;;6.93;47.61
33795;BME280;51430;52.242;21.118;2023-04-05T10:00:23;100959.84;;;6.90;47.23
33795;BME280;51430;52.242;21.118;2023-04-05T10:02:52;100955.58;;;6.92;47.57
33795;BME280;51430;52.242;21.118;2023-04-05T10:05:26;100955.07;;;6.95;46.98
33795;BME280;51430;52.242;21.118;2023-04-05T10:07:55;100954.98;;;6.73;46.98
33795;BME280;51430;52.242;21.118;2023-04-05T10:10:24;100954.16;;;6.51;48.50
33795;BME280;51430;52.242;21.118;2023-04-05T10:12:52;100954.86;;;6.45;48.99
33795;BME280;51430;52.242;21.118;2023-04-05T10:15:22;100956.65;;;6.50;49.13
33795;BME280;51430;52.242;21.118;2023-04-05T10:17:57;100958.25;;;6.63;48.98
33795;BME280;51430;52.242;21.118;2023-04-05T10:20:32;100956.73;;;6.69;48.19
33795;BME280;51430;52.242;21.118;2023-04-05T10:23:07;100953.08;;;6.83;48.58
33795;BME280;51430;52.242;21.118;2023-04-05T10:28:30;100951.59;;;7.15;46.82
33795;BME280;51430;52.242;21.118;2023-04-05T10:34:09;100946.10;;;6.60;46.34
33795;BME280;51430;52.242;21.118;2023-04-05T10:36:57;100943.15;;;6.77;46.39
33795;BME280;51430;52.242;21.118;2023-04-05T10:39:41;100944.91;;;7.00;46.13
33795;BME280;51430;52.242;21.118;2023-04-05T10:42:26;100944.42;;;7.09;45.86
33795;BME280;51430;52.242;21.118;2023-04-05T10:45:01;100946.31;;;7.52;45.28
33795;BME280;51430;52.242;21.118;2023-04-05T10:47:37;100940.95;;;7.55;44.76
33795;BME280;51430;52.242;21.118;2023-04-05T10:50:16;100938.38;;;7.67;44.64
33795;BME280;51430;52.242;21.118;2023-04-05T10:52:47;100939.33;;;8.15;43.91
33795;BME280;51430;52.242;21.118;2023-04-05T10:55:15;100935.94;;;8.80;42.44
33795;BME280;51430;52.242;21.118;2023-04-05T10:57:44;100937.23;;;9.32;42.20
33795;BME280;51430;52.242;21.118;2023-04-05T11:00:14;100935.89;;;9.71;40.86
33795;BME280;51430;52.242;21.118;2023-04-05T11:02:42;100936.26;;;9.73;39.64
33795;BME280;51430;52.242;21.118;2023-04-05T11:05:30;100936.91;;;9.74;40.02
33795;BME280;51430;52.242;21.118;2023-04-05T11:08:03;100937.40;;;9.80;39.44
33795;BME280;51430;52.242;21.118;2023-04-05T11:10:36;100939.27;;;9.94;38.57
33795;BME280;51430;52.242;21.118;2023-04-05T11:13:07;100938.08;;;9.55;38.43
33795;BME280;51430;52.242;21.118;2023-04-05T11:15:37;100937.69;;;9.08;39.29
33795;BME280;51430;52.242;21.118;2023-04-05T11:20:52;100937.58;;;8.52;40.57
33795;BME280;51430;52.242;21.118;2023-04-05T11:23:23;100937.00;;;7.95;41.62
33795;BME280;51430;52.242;21.118;2023-04-05T11:26:01;100936.66;;;7.67;42.22
33795;BME280;51430;52.242;21.118;2023-04-05T11:28:34;100935.60;;;7.19;43.27
33795;BME280;51430;52.242;21.118;2023-04-05T11:31:15;100934.13;;;7.24;43.95
33795;BME280;51430;52.242;21.118;2023-04-05T11:36:31;100935.84;;;7.15;44.80
33795;BME280;51430;52.242;21.118;2023-04-05T11:42:03;100937.79;;;7.17;45.35
33795;BME280;51430;52.242;21.118;2023-04-05T11:44:45;100938.02;;;7.16;45.61
33795;BME280;51430;52.242;21.118;2023-04-05T11:47:18;100938.33;;;7.07;46.10
33795;BME280;51430;52.242;21.118;2023-04-05T11:49:49;100941.76;;;6.94;44.80
33795;BME280;51430;52.242;21.118;2023-04-05T11:52:19;100941.52;;;6.82;44.87
33795;BME280;51430;52.242;21.118;2023-04-05T11:54:47;100939.94;;;6.83;44.75
33795;BME280;51430;52.242;21.118;2023-04-05T11:57:21;100941.10;;;6.80;44.96
33795;BME280;51430;52.242;21.118;2023-04-05T11:59:50;100943.73;;;6.83;45.55
33795;BME280;51430;52.242;21.118;2023-04-05T12:02:20;100942.82;;;6.91;45.78
33795;BME280;51430;52.242;21.118;2023-04-05T12:04:55;100941.73;;;7.08;45.77
33795;BME280;51430;52.242;21.118;2023-04-05T12:07:26;100939.77;;;7.29;44.59
33795;BME280;51430;52.242;21.118;2023-04-05T12:12:40;100936.90;;;7.37;44.63
33795;BME280;51430;52.242;21.118;2023-04-05T12:15:10;100938.74;;;7.38;44.17
33795;BME280;51430;52.242;21.118;2023-04-05T12:20:13;100936.04;;;7.53;44.82
33795;BME280;51430;52.242;21.118;2023-04-05T12:22:43;100939.36;;;7.62;44.90
33795;BME280;51430;52.242;21.118;2023-04-05T12:25:12;100933.33;;;7.58;44.45
33795;BME280;51430;52.242;21.118;2023-04-05T12:27:40;100935.66;;;7.75;43.88
33795;BME280;51430;52.242;21.118;2023-04-05T12:30:10;100934.57;;;7.89;43.40
33795;BME280;51430;52.242;21.118;2023-04-05T12:33:07;100932.52;;;7.91;43.11
33795;BME280;51430;52.242;21.118;2023-04-05T12:35:38;100932.35;;;8.04;42.36
33795;BME280;51430;52.242;21.118;2023-04-05T12:38:06;100929.33;;;8.33;41.08
33795;BME280;51430;52.242;21.118;2023-04-05T12:40:36;100928.33;;;8.41;40.43
33795;BME280;51430;52.242;21.118;2023-04-05T12:43:07;100929.79;;;8.86;41.19
33795;BME280;51430;52.242;21.118;2023-04-05T12:45:36;100928.44;;;10.05;37.68
33795;BME280;51430;52.242;21.118;2023-04-05T12:48:09;100923.48;;;11.05;36.36
33795;BME280;51430;52.242;21.118;2023-04-05T12:50:46;100924.27;;;11.51;35.67
33795;BME280;51430;52.242;21.118;2023-04-05T12:53:16;100926.98;;;11.18;35.27
33795;BME280;51430;52.242;21.118;2023-04-05T12:55:51;100926.63;;;10.04;36.29
33795;BME280;51430;52.242;21.118;2023-04-05T12:58:22;100923.34;;;9.54;36.97
33795;BME280;51430;52.242;21.118;2023-04-05T13:00:50;100924.84;;;9.64;38.09
33795;BME280;51430;52.242;21.118;2023-04-05T13:03:19;100923.25;;;10.00;37.61
33795;BME280;51430;52.242;21.118;2023-04-05T13:05:48;100921.06;;;10.54;36.00
33795;BME280;51430;52.242;21.118;2023-04-05T13:08:16;100924.58;;;10.27;35.90
33795;BME280;51430;52.242;21.118;2023-04-05T13:10:48;100919.77;;;9.72;36.78
33795;BME280;51430;52.242;21.118;2023-04-05T13:13:16;100925.14;;;9.92;36.74
33795;BME280;51430;52.242;21.118;2023-04-05T13:15:44;100925.69;;;10.42;35.90
33795;BME280;51430;52.242;21.118;2023-04-05T13:18:13;100919.85;;;10.54;35.67
33795;BME280;51430;52.242;21.118;2023-04-05T13:20:41;100920.17;;;10.28;35.97
33795;BME280;51430;52.242;21.118;2023-04-05T13:23:10;100921.84;;;9.92;36.52
33795;BME280;51430;52.242;21.118;2023-04-05T13:25:40;100921.02;;;9.55;37.75